sensor_id;sensor_type;location;lat;lon;timestamp;pressure;altitude;pressure_sealevel;temperature;humidity
77685;BME280;66844;46.092;18.268;2024-02-23T00:00:31;98177.84;;;10.69;60.51
77685;BME280;66844;46.092;18.268;2024-02-23T00:01:04;98173.63;;;10.66;60.96
77685;BME280;66844;46.092;18.268;2024-02-23T00:01:36;98148.84;;;10.77;59.90
77685;BME280;66844;46.092;18.268;2024-02-23T00:02:08;98146.78;;;10.81;60.49
77685;BME280;66844;46.092;18.268;2024-02-23T00:02:40;98162.72;;;10.81;60.79
77685;BME280;66844;46.092;18.268;2024-02-23T00:03:12;98129.09;;;10.80;61.32
77685;BME280;66844;46.092;18.268;2024-02-23T00:03:44;98168.06;;;10.81;61.23
77685;BME280;66844;46.092;18.268;2024-02-23T00:04:16;98169.88;;;10.80;61.49
77685;BME280;66844;46.092;18.268;2024-02-23T00:04:50;98155.25;;;10.75;62.60
77685;BME280;66844;46.092;18.268;2024-02-23T00:05:22;98138.44;;;10.85;60.68
77685;BME280;66844;46.092;18.268;2024-02-23T00:05:54;98135.25;;;10.91;59.38
77685;BME280;66844;46.092;18.268;2024-02-23T00:06:26;98113.13;;;10.91;59.80
77685;BME280;66844;46.092;18.268;2024-02-23T00:06:59;98163.94;;;10.88;60.54
77685;BME280;66844;46.092;18.268;2024-02-23T00:07:34;98150.78;;;10.86;60.59
77685;BME280;66844;46.092;18.268;2024-02-23T00:08:07;98136.13;;;10.92;59.84
77685;BME280;66844;46.092;18.268;2024-02-23T00:08:40;98132.84;;;10.88;60.83
77685;BME280;66844;46.092;18.268;2024-02-23T00:09:13;98156.09;;;10.86;61.41
77685;BME280;66844;46.092;18.268;2024-02-23T00:09:45;98147.94;;;11.10;59.29
77685;BME280;66844;46.092;18.268;2024-02-23T00:10:17;98132.97;;;11.09;59.20
77685;BME280;66844;46.092;18.268;2024-02-23T00:10:49;98144.78;;;11.16;58.59
77685;BME280;66844;46.092;18.268;2024-02-23T00:11:21;98118.03;;;11.17;58.82
77685;BME280;66844;46.092;18.268;2024-02-23T00:11:53;98142.13;;;11.16;59.06
77685;BME280;66844;46.092;18.268;2024-02-23T00:12:26;98142.97;;;11.16;59.46
77685;BME280;66844;46.092;18.268;2024-02-23T00:12:58;98148.16;;;11.18;59.41
77685;BME280;66844;46.092;18.268;2024-02-23T00:13:30;98141.28;;;11.15;60.02
77685;BME280;66844;46.092;18.268;2024-02-23T00:14:02;98152.03;;;11.14;60.44
77685;BME280;66844;46.092;18.268;2024-02-23T00:14:34;98154.84;;;11.12;60.41
77685;BME280;66844;46.092;18.268;2024-02-23T00:15:10;98115.88;;;11.11;60.13
77685;BME280;66844;46.092;18.268;2024-02-23T00:15:42;98134.34;;;11.24;59.17
77685;BME280;66844;46.092;18.268;2024-02-23T00:16:15;98121.50;;;11.29;58.96
77685;BME280;66844;46.092;18.268;2024-02-23T00:16:47;98105.88;;;11.36;57.69
77685;BME280;66844;46.092;18.268;2024-02-23T00:17:20;98089.03;;;11.46;57.30
77685;BME280;66844;46.092;18.268;2024-02-23T00:17:53;98118.06;;;11.49;57.75
77685;BME280;66844;46.092;18.268;2024-02-23T00:18:25;98129.06;;;11.45;58.77
77685;BME280;66844;46.092;18.268;2024-02-23T00:18:57;98130.31;;;11.41;58.58
77685;BME280;66844;46.092;18.268;2024-02-23T00:19:30;98134.19;;;11.37;59.46
77685;BME280;66844;46.092;18.268;2024-02-23T00:20:02;98142.28;;;11.35;59.23
77685;BME280;66844;46.092;18.268;2024-02-23T00:20:35;98143.88;;;11.38;58.66
77685;BME280;66844;46.092;18.268;2024-02-23T00:21:07;98131.63;;;11.35;58.39
77685;BME280;66844;46.092;18.268;2024-02-23T00:21:39;98139.41;;;11.38;58.53
77685;BME280;66844;46.092;18.268;2024-02-23T00:22:11;98148.25;;;11.39;58.69
77685;BME280;66844;46.092;18.268;2024-02-23T00:22:43;98142.91;;;11.39;58.43
77685;BME280;66844;46.092;18.268;2024-02-23T00:23:15;98143.72;;;11.39;58.44
77685;BME280;66844;46.092;18.268;2024-02-23T00:23:47;98143.03;;;11.37;58.92
77685;BME280;66844;46.092;18.268;2024-02-23T00:24:19;98135.41;;;11.33;58.79
77685;BME280;66844;46.092;18.268;2024-02-23T00:24:54;98138.81;;;11.35;58.39
77685;BME280;66844;46.092;18.268;2024-02-23T00:25:26;98135.16;;;11.36;58.20
77685;BME280;66844;46.092;18.268;2024-02-23T00:25:58;98116.41;;;11.37;57.37
77685;BME280;66844;46.092;18.268;2024-02-23T00:26:30;98141.22;;;11.38;57.88
77685;BME280;66844;46.092;18.268;2024-02-23T00:27:02;98139.41;;;11.38;57.49
77685;BME280;66844;46.092;18.268;2024-02-23T00:27:34;98147.38;;;11.38;57.07
77685;BME280;66844;46.092;18.268;2024-02-23T00:28:06;98145.44;;;11.40;56.57
77685;BME280;66844;46.092;18.268;2024-02-23T00:28:38;98147.38;;;11.38;57.38
77685;BME280;66844;46.092;18.268;2024-02-23T00:29:10;98142.28;;;11.35;57.17
77685;BME280;66844;46.092;18.268;2024-02-23T00:29:42;98148.47;;;11.36;57.22
77685;BME280;66844;46.092;18.268;2024-02-23T00:30:14;98141.06;;;11.39;56.92
77685;BME280;66844;46.092;18.268;2024-02-23T00:30:46;98137.69;;;11.37;57.03
77685;BME280;66844;46.092;18.268;2024-02-23T00:31:18;98143.03;;;11.37;56.05
77685;BME280;66844;46.092;18.268;2024-02-23T00:31:50;98151.00;;;11.37;56.91
77685;BME280;66844;46.092;18.268;2024-02-23T00:32:22;98144.94;;;11.35;56.66
77685;BME280;66844;46.092;18.268;2024-02-23T00:32:54;98142.53;;;11.32;56.86
77685;BME280;66844;46.092;18.268;2024-02-23T00:33:26;98140.13;;;11.29;56.71
77685;BME280;66844;46.092;18.268;2024-02-23T00:33:58;98152.75;;;11.27;57.13
77685;BME280;66844;46.092;18.268;2024-02-23T00:34:30;98144.88;;;11.26;57.44
77685;BME280;66844;46.092;18.268;2024-02-23T00:35:04;98140.66;;;11.23;57.08
77685;BME280;66844;46.092;18.268;2024-02-23T00:35:36;98129.28;;;11.21;58.09
77685;BME280;66844;46.092;18.268;2024-02-23T00:36:08;98146.25;;;11.20;57.95
77685;BME280;66844;46.092;18.268;2024-02-23T00:36:41;98126.00;;;11.17;57.98
77685;BME280;66844;46.092;18.268;2024-02-23T00:37:13;98144.19;;;11.12;58.23
77685;BME280;66844;46.092;18.268;2024-02-23T00:37:45;98145.16;;;11.11;58.70
77685;BME280;66844;46.092;18.268;2024-02-23T00:38:17;98138.28;;;11.09;58.38
77685;BME280;66844;46.092;18.268;2024-02-23T00:38:49;98135.13;;;11.04;58.67
77685;BME280;66844;46.092;18.268;2024-02-23T00:39:21;98141.56;;;11.01;59.48
77685;BME280;66844;46.092;18.268;2024-02-23T00:39:53;98148.81;;;10.99;59.93
77685;BME280;66844;46.092;18.268;2024-02-23T00:40:25;98134.78;;;10.97;60.19
77685;BME280;66844;46.092;18.268;2024-02-23T00:40:57;98132.25;;;10.96;59.63
77685;BME280;66844;46.092;18.268;2024-02-23T00:41:29;98144.69;;;10.95;59.92
77685;BME280;66844;46.092;18.268;2024-02-23T00:42:01;98140.34;;;10.94;60.40
77685;BME280;66844;46.092;18.268;2024-02-23T00:42:34;98137.06;;;10.91;60.24
77685;BME280;66844;46.092;18.268;2024-02-23T00:43:06;98138.66;;;10.93;60.52
77685;BME280;66844;46.092;18.268;2024-02-23T00:43:39;98145.31;;;10.88;60.80
77685;BME280;66844;46.092;18.268;2024-02-23T00:44:12;98140.13;;;10.86;61.30
77685;BME280;66844;46.092;18.268;2024-02-23T00:44:44;98141.09;;;10.85;61.71
77685;BME280;66844;46.092;18.268;2024-02-23T00:45:16;98128.91;;;10.83;61.03
77685;BME280;66844;46.092;18.268;2024-02-23T00:45:48;98154.75;;;10.81;61.57
77685;BME280;66844;46.092;18.268;2024-02-23T00:46:20;98133.63;;;10.79;61.55
77685;BME280;66844;46.092;18.268;2024-02-23T00:46:52;98138.09;;;10.79;62.29
77685;BME280;66844;46.092;18.268;2024-02-23T00:47:24;98140.84;;;10.77;62.06
77685;BME280;66844;46.092;18.268;2024-02-23T00:47:56;98149.78;;;10.76;62.55
77685;BME280;66844;46.092;18.268;2024-02-23T00:48:31;98149.78;;;10.76;62.54
77685;BME280;66844;46.092;18.268;2024-02-23T00:49:05;98141.97;;;10.75;62.81
77685;BME280;66844;46.092;18.268;2024-02-23T00:49:37;98138.44;;;10.74;62.37
77685;BME280;66844;46.092;18.268;2024-02-23T00:50:09;98147.13;;;10.76;62.46
77685;BME280;66844;46.092;18.268;2024-02-23T00:50:42;98143.88;;;10.73;63.28
77685;BME280;66844;46.092;18.268;2024-02-23T00:51:14;98141.22;;;10.73;63.29
77685;BME280;66844;46.092;18.268;2024-02-23T00:51:46;98140.50;;;10.70;63.23
77685;BME280;66844;46.092;18.268;2024-02-23T00:52:18;98145.09;;;10.68;64.02
77685;BME280;66844;46.092;18.268;2024-02-23T00:52:50;98151.25;;;10.69;63.82
77685;BME280;66844;46.092;18.268;2024-02-23T00:53:22;98149.09;;;10.63;64.74
77685;BME280;66844;46.092;18.268;2024-02-23T00:53:54;98140.25;;;10.62;64.35
77685;BME280;66844;46.092;18.268;2024-02-23T00:54:26;98143.88;;;10.61;64.91
77685;BME280;66844;46.092;18.268;2024-02-23T00:54:58;98149.09;;;10.63;64.97
77685;BME280;66844;46.092;18.268;2024-02-23T00:55:30;98137.59;;;10.62;64.84
77685;BME280;66844;46.092;18.268;2024-02-23T00:56:02;98146.69;;;10.60;64.73
77685;BME280;66844;46.092;18.268;2024-02-23T00:56:34;98146.44;;;10.63;64.60
77685;BME280;66844;46.092;18.268;2024-02-23T00:57:21;98144.13;;;10.58;65.39
77685;BME280;66844;46.092;18.268;2024-02-23T00:57:59;98146.09;;;10.56;65.75
77685;BME280;66844;46.092;18.268;2024-02-23T00:58:31;98147.03;;;10.55;65.69
77685;BME280;66844;46.092;18.268;2024-02-23T00:59:03;98145.47;;;10.53;65.94
77685;BME280;66844;46.092;18.268;2024-02-23T00:59:35;98146.53;;;10.50;66.63
77685;BME280;66844;46.092;18.268;2024-02-23T01:00:07;98148.94;;;10.53;66.36
77685;BME280;66844;46.092;18.268;2024-02-23T01:00:41;98144.47;;;10.54;66.43
77685;BME280;66844;46.092;18.268;2024-02-23T01:01:13;98139.06;;;10.44;66.79
77685;BME280;66844;46.092;18.268;2024-02-23T01:01:45;98145.94;;;10.47;67.53
77685;BME280;66844;46.092;18.268;2024-02-23T01:02:17;98148.84;;;10.44;67.41
77685;BME280;66844;46.092;18.268;2024-02-23T01:02:49;98142.69;;;10.43;67.63
77685;BME280;66844;46.092;18.268;2024-02-23T01:03:21;98148.13;;;10.42;67.68
77685;BME280;66844;46.092;18.268;2024-02-23T01:03:54;98142.91;;;10.40;67.40
77685;BME280;66844;46.092;18.268;2024-02-23T01:04:26;98141.22;;;10.39;67.61
77685;BME280;66844;46.092;18.268;2024-02-23T01:04:58;98140.16;;;10.42;67.97
77685;BME280;66844;46.092;18.268;2024-02-23T01:05:30;98139.31;;;10.41;68.12
77685;BME280;66844;46.092;18.268;2024-02-23T01:06:02;98138.31;;;10.42;68.00
77685;BME280;66844;46.092;18.268;2024-02-23T01:06:34;98153.44;;;10.42;68.07
77685;BME280;66844;46.092;18.268;2024-02-23T01:07:07;98153.56;;;10.40;68.03
77685;BME280;66844;46.092;18.268;2024-02-23T01:07:39;98137.84;;;10.37;68.88
77685;BME280;66844;46.092;18.268;2024-02-23T01:08:11;98140.00;;;10.32;69.22
77685;BME280;66844;46.092;18.268;2024-02-23T01:08:43;98151.59;;;10.31;69.55
77685;BME280;66844;46.092;18.268;2024-02-23T01:09:15;98142.06;;;10.29;70.28
77685;BME280;66844;46.092;18.268;2024-02-23T01:09:52;98144.00;;;10.27;71.13
77685;BME280;66844;46.092;18.268;2024-02-23T01:10:24;98147.38;;;10.29;70.05
77685;BME280;66844;46.092;18.268;2024-02-23T01:10:56;98138.91;;;10.23;70.03
77685;BME280;66844;46.092;18.268;2024-02-23T01:11:28;98139.91;;;10.23;70.41
77685;BME280;66844;46.092;18.268;2024-02-23T01:12:00;98143.63;;;10.20;70.47
77685;BME280;66844;46.092;18.268;2024-02-23T01:12:32;98147.97;;;10.21;70.65
77685;BME280;66844;46.092;18.268;2024-02-23T01:13:04;98143.63;;;10.20;71.11
77685;BME280;66844;46.092;18.268;2024-02-23T01:13:36;98147.03;;;10.22;71.50
77685;BME280;66844;46.092;18.268;2024-02-23T01:14:08;98151.84;;;10.17;71.55
77685;BME280;66844;46.092;18.268;2024-02-23T01:14:41;98143.00;;;10.16;71.57
77685;BME280;66844;46.092;18.268;2024-02-23T01:15:13;98147.06;;;10.09;72.13
77685;BME280;66844;46.092;18.268;2024-02-23T01:15:45;98145.63;;;10.05;72.23
77685;BME280;66844;46.092;18.268;2024-02-23T01:16:17;98141.63;;;10.00;73.04
77685;BME280;66844;46.092;18.268;2024-02-23T01:16:49;98156.00;;;9.97;73.29
77685;BME280;66844;46.092;18.268;2024-02-23T01:17:21;98158.66;;;9.97;73.18
77685;BME280;66844;46.092;18.268;2024-02-23T01:17:53;98149.44;;;9.90;73.55
77685;BME280;66844;46.092;18.268;2024-02-23T01:18:25;98150.28;;;9.91;73.94
77685;BME280;66844;46.092;18.268;2024-02-23T01:18:58;98148.38;;;9.93;73.50
77685;BME280;66844;46.092;18.268;2024-02-23T01:19:29;98147.78;;;9.89;74.04
77685;BME280;66844;46.092;18.268;2024-02-23T01:20:01;98145.13;;;9.89;73.88
77685;BME280;66844;46.092;18.268;2024-02-23T01:20:34;98135.78;;;9.84;74.73
77685;BME280;66844;46.092;18.268;2024-02-23T01:21:06;98145.47;;;9.85;74.68
77685;BME280;66844;46.092;18.268;2024-02-23T01:21:38;98144.72;;;9.83;75.23
77685;BME280;66844;46.092;18.268;2024-02-23T01:22:10;98138.06;;;9.77;75.12
77685;BME280;66844;46.092;18.268;2024-02-23T01:22:43;98152.19;;;9.78;76.23
77685;BME280;66844;46.092;18.268;2024-02-23T01:23:15;98143.63;;;9.74;75.66
77685;BME280;66844;46.092;18.268;2024-02-23T01:23:47;98144.34;;;9.76;75.29
77685;BME280;66844;46.092;18.268;2024-02-23T01:24:19;98124.78;;;9.77;73.46
77685;BME280;66844;46.092;18.268;2024-02-23T01:24:51;98139.53;;;9.81;74.66
77685;BME280;66844;46.092;18.268;2024-02-23T01:25:23;98137.84;;;9.80;75.32
77685;BME280;66844;46.092;18.268;2024-02-23T01:25:54;98099.56;;;9.83;73.42
77685;BME280;66844;46.092;18.268;2024-02-23T01:26:26;98119.75;;;9.85;75.05
77685;BME280;66844;46.092;18.268;2024-02-23T01:26:59;98119.13;;;9.82;75.34
77685;BME280;66844;46.092;18.268;2024-02-23T01:27:31;98133.03;;;9.85;74.86
77685;BME280;66844;46.092;18.268;2024-02-23T01:28:03;98120.59;;;9.86;74.35
77685;BME280;66844;46.092;18.268;2024-02-23T01:28:35;98115.91;;;9.89;73.73
77685;BME280;66844;46.092;18.268;2024-02-23T01:29:07;98117.13;;;9.96;73.96
77685;BME280;66844;46.092;18.268;2024-02-23T01:29:39;98127.00;;;9.94;75.38
77685;BME280;66844;46.092;18.268;2024-02-23T01:30:11;98142.22;;;9.92;76.17
77685;BME280;66844;46.092;18.268;2024-02-23T01:30:44;98123.38;;;9.84;76.46
77685;BME280;66844;46.092;18.268;2024-02-23T01:31:16;98130.72;;;9.81;76.63
77685;BME280;66844;46.092;18.268;2024-02-23T01:31:48;98126.97;;;9.83;76.75
77685;BME280;66844;46.092;18.268;2024-02-23T01:32:21;98122.84;;;9.79;76.99
77685;BME280;66844;46.092;18.268;2024-02-23T01:32:53;98135.53;;;9.75;76.45
77685;BME280;66844;46.092;18.268;2024-02-23T01:33:25;98130.44;;;9.72;77.31
77685;BME280;66844;46.092;18.268;2024-02-23T01:33:57;98119.09;;;9.70;77.15
77685;BME280;66844;46.092;18.268;2024-02-23T01:34:30;98128.75;;;9.71;78.18
77685;BME280;66844;46.092;18.268;2024-02-23T01:35:02;98126.56;;;9.65;78.18
77685;BME280;66844;46.092;18.268;2024-02-23T01:35:34;98129.97;;;9.67;78.04
77685;BME280;66844;46.092;18.268;2024-02-23T01:36:07;98129.47;;;9.62;79.44
77685;BME280;66844;46.092;18.268;2024-02-23T01:36:40;98129.19;;;9.54;80.55
77685;BME280;66844;46.092;18.268;2024-02-23T01:37:12;98120.38;;;9.54;78.79
77685;BME280;66844;46.092;18.268;2024-02-23T01:37:44;98118.66;;;9.53;78.82
77685;BME280;66844;46.092;18.268;2024-02-23T01:38:16;98122.91;;;9.55;79.93
77685;BME280;66844;46.092;18.268;2024-02-23T01:38:52;98123.63;;;9.57;79.12
77685;BME280;66844;46.092;18.268;2024-02-23T01:39:24;98121.97;;;9.56;80.00
77685;BME280;66844;46.092;18.268;2024-02-23T01:39:56;98124.72;;;9.55;80.39
77685;BME280;66844;46.092;18.268;2024-02-23T01:40:28;98124.72;;;9.55;80.40
77685;BME280;66844;46.092;18.268;2024-02-23T01:41:00;98119.53;;;9.53;79.50
77685;BME280;66844;46.092;18.268;2024-02-23T01:41:33;98125.69;;;9.54;79.95
77685;BME280;66844;46.092;18.268;2024-02-23T01:42:05;98120.97;;;9.57;79.91
77685;BME280;66844;46.092;18.268;2024-02-23T01:42:36;98122.91;;;9.55;80.25
77685;BME280;66844;46.092;18.268;2024-02-23T01:43:08;98120.03;;;9.58;80.17
77685;BME280;66844;46.092;18.268;2024-02-23T01:43:40;98113.16;;;9.56;80.14
77685;BME280;66844;46.092;18.268;2024-02-23T01:44:13;98089.38;;;9.65;77.21
77685;BME280;66844;46.092;18.268;2024-02-23T01:44:47;98122.97;;;9.66;78.47
77685;BME280;66844;46.092;18.268;2024-02-23T01:45:18;98101.22;;;9.61;79.52
77685;BME280;66844;46.092;18.268;2024-02-23T01:45:51;98105.91;;;9.58;79.47
77685;BME280;66844;46.092;18.268;2024-02-23T01:46:23;98105.81;;;9.59;79.82
77685;BME280;66844;46.092;18.268;2024-02-23T01:46:55;98108.47;;;9.59;80.35
77685;BME280;66844;46.092;18.268;2024-02-23T01:47:28;98110.25;;;9.59;80.32
77685;BME280;66844;46.092;18.268;2024-02-23T01:48:01;98118.84;;;9.62;80.41
77685;BME280;66844;46.092;18.268;2024-02-23T01:48:34;98117.28;;;9.60;80.28
77685;BME280;66844;46.092;18.268;2024-02-23T01:49:07;98130.66;;;9.58;81.28
77685;BME280;66844;46.092;18.268;2024-02-23T01:49:40;98123.63;;;9.57;80.22
77685;BME280;66844;46.092;18.268;2024-02-23T01:50:12;98122.69;;;9.58;80.97
77685;BME280;66844;46.092;18.268;2024-02-23T01:50:45;98131.59;;;9.57;81.02
77685;BME280;66844;46.092;18.268;2024-02-23T01:51:16;98132.44;;;9.58;81.26
77685;BME280;66844;46.092;18.268;2024-02-23T01:51:51;98128.09;;;9.57;82.10
77685;BME280;66844;46.092;18.268;2024-02-23T01:52:23;98130.03;;;9.55;82.43
77685;BME280;66844;46.092;18.268;2024-02-23T01:52:57;98121.22;;;9.54;83.02
77685;BME280;66844;46.092;18.268;2024-02-23T01:53:31;98122.31;;;9.52;81.85
77685;BME280;66844;46.092;18.268;2024-02-23T01:54:04;98130.88;;;9.55;82.53
77685;BME280;66844;46.092;18.268;2024-02-23T01:54:36;98130.03;;;9.55;82.73
77685;BME280;66844;46.092;18.268;2024-02-23T01:55:08;98128.56;;;9.51;83.40
77685;BME280;66844;46.092;18.268;2024-02-23T01:55:41;98128.81;;;9.48;82.41
77685;BME280;66844;46.092;18.268;2024-02-23T01:56:17;98123.50;;;9.48;83.22
77685;BME280;66844;46.092;18.268;2024-02-23T01:56:52;98125.53;;;9.44;83.35
77685;BME280;66844;46.092;18.268;2024-02-23T01:57:24;98120.22;;;9.44;83.08
77685;BME280;66844;46.092;18.268;2024-02-23T01:58:17;98118.53;;;9.43;82.66
77685;BME280;66844;46.092;18.268;2024-02-23T01:58:49;98124.59;;;9.45;83.32
77685;BME280;66844;46.092;18.268;2024-02-23T01:59:23;98123.84;;;9.43;83.56
77685;BME280;66844;46.092;18.268;2024-02-23T01:59:55;98124.69;;;9.44;83.55
77685;BME280;66844;46.092;18.268;2024-02-23T02:00:28;98126.50;;;9.43;83.72
77685;BME280;66844;46.092;18.268;2024-02-23T02:01:01;98130.94;;;9.43;83.99
77685;BME280;66844;46.092;18.268;2024-02-23T02:01:33;98129.47;;;9.39;85.07
77685;BME280;66844;46.092;18.268;2024-02-23T02:02:05;98128.63;;;9.38;84.90
77685;BME280;66844;46.092;18.268;2024-02-23T02:02:38;98132.25;;;9.37;84.70
77685;BME280;66844;46.092;18.268;2024-02-23T02:03:11;98133.31;;;9.35;85.06
77685;BME280;66844;46.092;18.268;2024-02-23T02:03:43;98140.47;;;9.34;85.67
77685;BME280;66844;46.092;18.268;2024-02-23T02:04:15;98123.88;;;9.31;85.70
77685;BME280;66844;46.092;18.268;2024-02-23T02:04:48;98130.03;;;9.31;86.06
77685;BME280;66844;46.092;18.268;2024-02-23T02:05:20;98124.13;;;9.27;85.48
77685;BME280;66844;46.092;18.268;2024-02-23T02:05:53;98121.38;;;9.29;85.94
77685;BME280;66844;46.092;18.268;2024-02-23T02:06:25;98129.94;;;9.33;85.96
77685;BME280;66844;46.092;18.268;2024-02-23T02:06:59;98124.88;;;9.30;86.21
77685;BME280;66844;46.092;18.268;2024-02-23T02:07:31;98125.91;;;9.27;86.46
77685;BME280;66844;46.092;18.268;2024-02-23T02:08:04;98121.69;;;9.24;86.45
77685;BME280;66844;46.092;18.268;2024-02-23T02:08:36;98126.91;;;9.26;86.62
77685;BME280;66844;46.092;18.268;2024-02-23T02:09:08;98120.00;;;9.23;87.36
77685;BME280;66844;46.092;18.268;2024-02-23T02:09:40;98132.53;;;9.21;86.82
77685;BME280;66844;46.092;18.268;2024-02-23T02:10:12;98126.63;;;9.18;87.40
77685;BME280;66844;46.092;18.268;2024-02-23T02:10:44;98129.16;;;9.19;87.65
77685;BME280;66844;46.092;18.268;2024-02-23T02:11:18;98132.78;;;9.18;87.53
77685;BME280;66844;46.092;18.268;2024-02-23T02:11:50;98122.25;;;9.17;87.87
77685;BME280;66844;46.092;18.268;2024-02-23T02:12:29;98129.28;;;9.18;87.69
77685;BME280;66844;46.092;18.268;2024-02-23T02:13:02;98134.59;;;9.18;87.23
77685;BME280;66844;46.092;18.268;2024-02-23T02:13:35;98121.75;;;9.12;87.03
77685;BME280;66844;46.092;18.268;2024-02-23T02:14:07;98125.47;;;9.09;87.17
77685;BME280;66844;46.092;18.268;2024-02-23T02:14:39;98131.53;;;9.11;88.37
77685;BME280;66844;46.092;18.268;2024-02-23T02:15:11;98132.34;;;9.12;88.36
77685;BME280;66844;46.092;18.268;2024-02-23T02:15:43;98131.63;;;9.10;87.95
77685;BME280;66844;46.092;18.268;2024-02-23T02:16:18;98129.09;;;9.08;88.30
77685;BME280;66844;46.092;18.268;2024-02-23T02:16:50;98133.56;;;9.08;88.59
77685;BME280;66844;46.092;18.268;2024-02-23T02:17:22;98128.13;;;9.09;88.70
77685;BME280;66844;46.092;18.268;2024-02-23T02:17:54;98124.88;;;9.06;89.31
77685;BME280;66844;46.092;18.268;2024-02-23T02:18:26;98134.63;;;9.05;89.62
77685;BME280;66844;46.092;18.268;2024-02-23T02:18:58;98119.25;;;8.98;89.85
77685;BME280;66844;46.092;18.268;2024-02-23T02:19:30;98128.81;;;9.00;89.62
77685;BME280;66844;46.092;18.268;2024-02-23T02:20:03;98125.31;;;9.00;89.85
77685;BME280;66844;46.092;18.268;2024-02-23T02:20:50;98123.63;;;8.99;90.00
77685;BME280;66844;46.092;18.268;2024-02-23T02:21:22;98124.56;;;8.98;88.28
77685;BME280;66844;46.092;18.268;2024-02-23T02:21:57;98120.97;;;8.99;89.80
77685;BME280;66844;46.092;18.268;2024-02-23T02:22:28;98125.56;;;8.97;89.93
77685;BME280;66844;46.092;18.268;2024-02-23T02:23:00;98121.91;;;8.98;90.22
77685;BME280;66844;46.092;18.268;2024-02-23T02:23:33;98120.34;;;8.95;90.29
77685;BME280;66844;46.092;18.268;2024-02-23T02:24:05;98134.56;;;8.94;90.69
77685;BME280;66844;46.092;18.268;2024-02-23T02:24:38;98124.19;;;8.91;90.18
77685;BME280;66844;46.092;18.268;2024-02-23T02:25:14;98122.38;;;8.92;90.57
77685;BME280;66844;46.092;18.268;2024-02-23T02:25:54;98131.41;;;8.89;90.16
77685;BME280;66844;46.092;18.268;2024-02-23T02:26:26;98126.31;;;8.86;90.92
77685;BME280;66844;46.092;18.268;2024-02-23T02:26:58;98131.72;;;8.85;91.56
77685;BME280;66844;46.092;18.268;2024-02-23T02:27:30;98114.97;;;8.84;90.33
77685;BME280;66844;46.092;18.268;2024-02-23T02:28:06;98121.84;;;8.87;90.13
77685;BME280;66844;46.092;18.268;2024-02-23T02:28:38;98135.25;;;8.85;89.70
77685;BME280;66844;46.092;18.268;2024-02-23T02:29:10;98123.44;;;8.89;89.39
77685;BME280;66844;46.092;18.268;2024-02-23T02:29:42;98133.09;;;8.90;90.91
77685;BME280;66844;46.092;18.268;2024-02-23T02:30:14;98128.00;;;8.87;90.67
77685;BME280;66844;46.092;18.268;2024-02-23T02:30:46;98133.44;;;8.86;91.34
77685;BME280;66844;46.092;18.268;2024-02-23T02:31:18;98138.75;;;8.86;91.86
77685;BME280;66844;46.092;18.268;2024-02-23T02:31:50;98130.34;;;8.79;91.63
77685;BME280;66844;46.092;18.268;2024-02-23T02:32:23;98136.50;;;8.80;92.29
77685;BME280;66844;46.092;18.268;2024-02-23T02:32:55;98142.03;;;8.76;93.20
77685;BME280;66844;46.092;18.268;2024-02-23T02:33:27;98144.69;;;8.76;93.49
77685;BME280;66844;46.092;18.268;2024-02-23T02:33:59;98133.47;;;8.73;93.30
77685;BME280;66844;46.092;18.268;2024-02-23T02:34:31;98135.03;;;8.75;92.88
77685;BME280;66844;46.092;18.268;2024-02-23T02:35:03;98135.03;;;8.75;92.34
77685;BME280;66844;46.092;18.268;2024-02-23T02:35:35;98143.63;;;8.79;91.93
77685;BME280;66844;46.092;18.268;2024-02-23T02:36:07;98130.34;;;8.79;92.30
77685;BME280;66844;46.092;18.268;2024-02-23T02:36:39;98130.59;;;8.76;93.75
77685;BME280;66844;46.092;18.268;2024-02-23T02:37:11;98140.34;;;8.75;93.12
77685;BME280;66844;46.092;18.268;2024-02-23T02:37:43;98141.09;;;8.77;93.68
77685;BME280;66844;46.092;18.268;2024-02-23T02:38:16;98131.34;;;8.78;93.44
77685;BME280;66844;46.092;18.268;2024-02-23T02:38:48;98132.28;;;8.77;93.20
77685;BME280;66844;46.092;18.268;2024-02-23T02:39:20;98143.53;;;8.81;93.36
77685;BME280;66844;46.092;18.268;2024-02-23T02:39:52;98148.81;;;8.81;92.95
77685;BME280;66844;46.092;18.268;2024-02-23T02:40:23;98129.50;;;8.78;92.51
77685;BME280;66844;46.092;18.268;2024-02-23T02:40:56;98143.38;;;8.82;91.74
77685;BME280;66844;46.092;18.268;2024-02-23T02:41:29;98139.78;;;8.83;93.17
77685;BME280;66844;46.092;18.268;2024-02-23T02:42:04;98131.84;;;8.83;91.76
77685;BME280;66844;46.092;18.268;2024-02-23T02:42:37;98121.81;;;8.99;89.42
77685;BME280;66844;46.092;18.268;2024-02-23T02:43:08;98139.00;;;8.94;91.31
77685;BME280;66844;46.092;18.268;2024-02-23T02:43:40;98141.66;;;8.94;92.27
77685;BME280;66844;46.092;18.268;2024-02-23T02:44:12;98136.72;;;8.89;93.22
77685;BME280;66844;46.092;18.268;2024-02-23T02:44:45;98143.81;;;8.89;93.18
77685;BME280;66844;46.092;18.268;2024-02-23T02:45:17;98137.03;;;8.85;93.16
77685;BME280;66844;46.092;18.268;2024-02-23T02:45:51;98131.97;;;8.82;92.70
77685;BME280;66844;46.092;18.268;2024-02-23T02:46:23;98144.03;;;8.86;92.87
77685;BME280;66844;46.092;18.268;2024-02-23T02:46:55;98140.75;;;8.82;93.20
77685;BME280;66844;46.092;18.268;2024-02-23T02:47:27;98141.59;;;8.83;93.52
77685;BME280;66844;46.092;18.268;2024-02-23T02:48:03;98138.22;;;8.81;94.09
77685;BME280;66844;46.092;18.268;2024-02-23T02:48:35;98147.97;;;8.80;94.31
77685;BME280;66844;46.092;18.268;2024-02-23T02:49:07;98147.97;;;8.80;94.42
77685;BME280;66844;46.092;18.268;2024-02-23T02:49:40;98145.94;;;8.84;94.16
77685;BME280;66844;46.092;18.268;2024-02-23T02:50:12;98151.47;;;8.81;94.88
77685;BME280;66844;46.092;18.268;2024-02-23T02:50:44;98154.22;;;8.79;95.10
77685;BME280;66844;46.092;18.268;2024-02-23T02:51:16;98146.25;;;8.79;95.89
77685;BME280;66844;46.092;18.268;2024-02-23T02:51:48;98151.69;;;8.77;95.81